Time;durP1;ratioP1;P1;durP2;ratioP2;P2;SDS_P1;SDS_P2;PMS_P1;PMS_P2;Temp;Humidity;BMP_temperature;BMP_pressure;BME280_temperature;BME280_humidity;BME280_pressure;Samples;Min_cycle;Max_cycle;Signal;HPM_P1;HPM_P2
2023/05/06 00:06:27;;;;;;;0.88;0.88;;;;;;;19.96;63.70;101358.19;19883536;29;20074;-62
2023/05/06 00:16:29;;;;;;;0.63;0.63;;;;;;;19.94;63.58;101358.31;19884716;29;20419;-62
2023/05/06 00:26:31;;;;;;;0.70;0.68;;;;;;;19.93;63.03;101350.34;19883517;29;20054;-62
2023/05/06 00:36:33;;;;;;;0.60;0.60;;;;;;;19.82;62.64;101330.50;19882623;29;20051;-62
2023/05/06 00:46:35;;;;;;;0.60;0.60;;;;;;;19.90;62.42;101347.91;19881658;29;20058;-62
2023/05/06 00:56:37;;;;;;;0.75;0.52;;;;;;;19.88;62.39;101344.44;19880243;29;20157;-62
2023/05/06 01:06:48;;;;;;;0.63;0.57;;;;;;;19.85;61.99;101343.72;19880644;29;20062;-62
2023/05/06 01:16:53;;;;;;;0.50;0.47;;;;;;;19.84;61.90;101336.63;19878555;29;20133;-62
2023/05/06 01:26:55;;;;;;;0.50;0.50;;;;;;;19.83;61.64;101326.81;19862457;29;20062;-62
2023/05/06 01:37:13;;;;;;;0.55;0.55;;;;;;;19.82;61.89;101330.50;19878601;29;20069;-62
2023/05/06 01:47:16;;;;;;;0.38;0.38;;;;;;;19.80;61.51;101329.78;19877470;29;20065;-62
2023/05/06 01:57:17;;;;;;;0.50;0.50;;;;;;;19.78;61.25;101330.94;19877213;29;20051;-62
2023/05/06 02:07:19;;;;;;;0.50;0.50;;;;;;;19.77;61.12;101324.66;19876482;29;20436;-62
2023/05/06 02:17:20;;;;;;;0.50;0.50;;;;;;;19.75;60.81;101323.94;19875953;29;20173;-62
2023/05/06 02:27:22;;;;;;;0.40;0.40;;;;;;;19.75;60.57;101326.66;19874935;29;20046;-62
2023/05/06 02:37:24;;;;;;;0.43;0.43;;;;;;;19.74;60.35;101321.41;19863195;29;20057;-62
2023/05/06 02:47:25;;;;;;;0.50;0.50;;;;;;;19.72;59.91;101316.13;19889943;29;20059;-62
2023/05/06 02:57:28;;;;;;;0.60;0.60;;;;;;;19.72;59.62;101318.81;19887772;29;20047;-62
2023/05/06 03:07:29;;;;;;;0.70;0.70;;;;;;;19.68;59.31;101296.66;19888759;29;20111;-62
2023/05/06 03:17:31;;;;;;;0.80;0.80;;;;;;;19.71;59.05;101309.00;19878371;29;20446;-62
2023/05/06 03:27:37;;;;;;;0.63;0.63;;;;;;;19.71;59.50;101315.28;19878585;29;20137;-63
2023/05/06 03:37:46;;;;;;;1.52;0.80;;;;;;;19.72;59.44;101313.41;19854021;29;20078;-62
2023/05/06 03:47:48;;;;;;;0.95;0.95;;;;;;;19.69;59.01;101319.97;19928020;29;20138;-62
2023/05/06 03:57:52;;;;;;;0.82;0.80;;;;;;;19.68;58.88;101312.00;19950415;29;20050;-62
2023/05/06 04:07:55;;;;;;;0.82;0.65;;;;;;;19.66;58.68;101319.38;19974144;29;20062;-62
2023/05/06 04:17:57;;;;;;;0.57;0.57;;;;;;;19.65;58.52;101321.22;19958536;29;20610;-62
2023/05/06 04:27:59;;;;;;;0.40;0.40;;;;;;;19.62;58.50;101329.59;19913888;29;20053;-62
2023/05/06 04:38:02;;;;;;;0.90;0.70;;;;;;;19.61;58.50;101335.16;19881627;29;20055;-62
2023/05/06 04:48:05;;;;;;;0.57;0.53;;;;;;;19.59;58.36;101350.63;19881635;29;20055;-62
2023/05/06 04:58:07;;;;;;;0.40;0.40;;;;;;;19.59;58.40;101356.03;19866022;29;20053;-62
2023/05/06 05:08:12;;;;;;;0.50;0.50;;;;;;;19.59;58.25;101361.44;19894262;29;20047;-62
2023/05/06 05:18:13;;;;;;;0.40;0.40;;;;;;;19.60;58.15;101373.94;19880034;29;20047;-62
2023/05/06 05:28:16;;;;;;;0.47;0.47;;;;;;;19.60;58.26;101365.84;19893222;29;20051;-62
2023/05/06 05:38:18;;;;;;;0.75;0.50;;;;;;;19.61;58.30;101378.34;19877644;29;20051;-62
2023/05/06 05:48:20;;;;;;;0.50;0.50;;;;;;;19.61;58.52;101371.09;19862962;29;20051;-62
2023/05/06 05:58:22;;;;;;;0.65;0.65;;;;;;;19.60;59.16;101372.09;19876930;29;20063;-62
2023/05/06 06:08:25;;;;;;;0.70;0.70;;;;;;;19.65;59.85;101366.28;19876761;29;20051;-62
2023/05/06 06:18:28;;;;;;;0.98;0.95;;;;;;;19.67;60.93;101367.00;19870210;29;20509;-62
2023/05/06 06:28:30;;;;;;;1.10;1.05;;;;;;;19.69;61.69;101381.22;19903217;29;20054;-62
2023/05/06 06:38:32;;;;;;;1.70;1.50;;;;;;;19.79;62.20;101384.81;19868831;29;20061;-64
2023/05/06 06:48:34;;;;;;;1.83;1.70;;;;;;;19.93;62.50;101396.28;19885116;29;20050;-62
2023/05/06 06:58:36;;;;;;;1.77;1.55;;;;;;;20.00;62.02;101405.53;19927074;29;20062;-62
2023/05/06 07:08:38;;;;;;;1.35;1.00;;;;;;;19.93;61.66;101391.72;19923627;29;20055;-62
2023/05/06 07:18:39;;;;;;;1.30;1.20;;;;;;;19.97;61.48;101403.13;19925268;29;20054;-62
2023/05/06 07:28:41;;;;;;;1.10;1.00;;;;;;;19.92;61.35;101410.78;19908518;29;20062;-64
2023/05/06 07:38:42;;;;;;;3.55;1.05;;;;;;;19.92;61.65;101410.78;19897034;29;20155;-63
2023/05/06 07:48:44;;;;;;;1.58;1.00;;;;;;;19.94;61.82;101412.34;19844791;29;20070;-64
2023/05/06 07:58:47;;;;;;;2.50;1.40;;;;;;;20.00;63.01;101432.56;19845811;29;20062;-64
2023/05/06 08:08:49;;;;;;;2.00;1.60;;;;;;;20.22;63.01;101433.31;19865431;29;20051;-64
2023/05/06 08:18:50;;;;;;;3.28;2.30;;;;;;;21.18;61.42;101443.50;19908336;29;20055;-62
2023/05/06 08:28:54;;;;;;;3.60;2.28;;;;;;;22.21;59.68;101437.28;19875222;29;20057;-63
2023/05/06 08:38:56;;;;;;;3.75;2.90;;;;;;;23.40;56.76;101434.47;19886028;29;20405;-63
2023/05/06 08:48:58;;;;;;;8.15;3.47;;;;;;;23.41;56.85;101441.63;19854932;29;20047;-64
2023/05/06 08:59:00;;;;;;;4.05;2.55;;;;;;;23.08;57.38;101427.81;19862124;29;20170;-62
2023/05/06 09:09:02;;;;;;;4.63;2.65;;;;;;;22.48;58.27;101426.59;19862409;29;20623;-62
2023/05/06 09:19:03;;;;;;;3.30;2.63;;;;;;;22.04;58.97;101416.44;19836586;29;20059;-63
2023/05/06 09:29:05;;;;;;;3.08;2.60;;;;;;;21.75;60.24;101415.56;19855925;29;20054;-63
2023/05/06 09:39:07;;;;;;;3.30;2.50;;;;;;;21.59;60.70;101422.44;19845565;29;20051;-64
2023/05/06 09:49:09;;;;;;;5.30;3.45;;;;;;;21.49;61.71;101415.38;19849496;29;20058;-63
2023/05/06 09:59:11;;;;;;;5.68;3.42;;;;;;;21.42;62.40;101421.34;19872225;29;20578;-62
2023/05/06 10:09:13;;;;;;;3.75;2.30;;;;;;;21.27;63.26;101402.03;19882899;29;20465;-63
2023/05/06 10:19:17;;;;;;;2.60;1.70;;;;;;;21.26;63.88;101408.44;19896890;29;20050;-61
2023/05/06 10:29:19;;;;;;;3.42;1.73;;;;;;;21.20;64.16;101395.47;19901259;29;20461;-61
2023/05/06 10:39:22;;;;;;;1.52;1.40;;;;;;;21.22;64.51;101392.63;19893420;29;20046;-63
2023/05/06 10:49:23;;;;;;;4.15;2.95;;;;;;;21.23;65.11;101388.91;19906108;29;20050;-61
2023/05/06 10:59:29;;;;;;;2.75;2.30;;;;;;;21.25;63.86;101387.78;19915742;29;20054;-61
2023/05/06 11:09:31;;;;;;;4.15;2.33;;;;;;;21.17;63.48;101370.56;19891489;29;20061;-61
2023/05/06 11:19:37;;;;;;;3.80;2.63;;;;;;;21.14;63.11;101380.69;19898013;29;20059;-61
2023/05/06 11:29:41;;;;;;;3.33;2.70;;;;;;;21.08;62.96;101374.97;19887826;29;20050;-61
2023/05/06 11:39:47;;;;;;;3.22;2.35;;;;;;;20.95;62.66;101365.31;19886773;29;20108;-61
2023/05/06 11:49:55;;;;;;;3.58;2.63;;;;;;;20.86;63.01;101361.63;19886756;29;20093;-61
2023/05/06 11:59:56;;;;;;;3.50;2.67;;;;;;;20.80;63.19;101362.22;19885620;29;20435;-61
2023/05/06 12:10:02;;;;;;;3.88;2.70;;;;;;;20.73;63.18;101367.31;19884644;29;20489;-61
2023/05/06 12:20:04;;;;;;;4.50;3.00;;;;;;;20.68;63.51;101358.78;19882717;29;20058;-61
2023/05/06 12:30:07;;;;;;;3.70;2.90;;;;;;;20.65;64.89;101356.34;19867764;29;20580;-61
2023/05/06 12:40:16;;;;;;;3.20;2.90;;;;;;;20.62;66.97;101358.50;19882964;29;20074;-61
2023/05/06 12:50:31;;;;;;;3.45;2.80;;;;;;;20.57;66.67;101365.22;19882268;29;20054;-61
2023/05/06 13:00:32;;;;;;;4.75;3.38;;;;;;;20.56;66.45;101365.34;19881830;29;20066;-61
2023/05/06 13:10:34;;;;;;;4.07;3.15;;;;;;;20.55;66.85;101366.34;19880219;29;20109;-61
2023/05/06 13:20:36;;;;;;;3.33;3.03;;;;;;;20.52;66.54;101359.34;19880258;29;20540;-61
2023/05/06 13:30:37;;;;;;;4.32;2.88;;;;;;;20.53;65.41;101360.22;19879649;29;20530;-61
2023/05/06 13:40:39;;;;;;;3.30;2.78;;;;;;;20.51;65.10;101356.81;19877714;29;20047;-61
2023/05/06 13:50:41;;;;;;;3.53;3.20;;;;;;;20.51;64.72;101356.81;19878770;29;20057;-61
2023/05/06 14:00:43;;;;;;;2.85;2.65;;;;;;;20.48;64.38;101354.38;19878315;29;20093;-61
2023/05/06 14:10:44;;;;;;;3.53;2.80;;;;;;;20.45;64.13;101341.16;19877603;29;20050;-61
2023/05/06 14:20:46;;;;;;;3.95;3.10;;;;;;;20.45;65.62;101341.16;19877081;29;20110;-61
2023/05/06 14:30:49;;;;;;;3.90;3.30;;;;;;;20.42;64.97;101353.97;19877245;29;20508;-61
2023/05/06 14:40:51;;;;;;;4.35;3.28;;;;;;;20.40;65.46;101361.34;19886540;29;20059;-61
2023/05/06 14:50:52;;;;;;;3.55;3.25;;;;;;;20.38;65.64;101359.78;19889744;29;20113;-61
2023/05/06 15:00:54;;;;;;;2.55;2.35;;;;;;;20.38;65.70;101368.75;19890528;29;20062;-61
2023/05/06 15:10:56;;;;;;;2.75;1.92;;;;;;;20.38;64.62;101378.72;19888079;29;20069;-61
2023/05/06 15:21:00;;;;;;;3.45;2.20;;;;;;;20.34;64.59;101385.41;19888160;29;20112;-61
2023/05/06 15:31:01;;;;;;;2.00;1.80;;;;;;;20.34;65.69;101396.22;19887721;29;20058;-61
2023/05/06 15:41:03;;;;;;;2.63;2.00;;;;;;;20.31;65.19;101402.75;19887019;29;20099;-61
2023/05/06 15:51:05;;;;;;;2.10;1.90;;;;;;;20.28;65.49;101395.78;19870011;29;20061;-61
2023/05/06 16:01:07;;;;;;;2.17;1.80;;;;;;;20.27;65.61;101390.50;19884009;29;20431;-61
2023/05/06 16:11:09;;;;;;;2.10;1.90;;;;;;;20.26;65.94;101383.38;19884716;29;20086;-61
2023/05/06 16:21:10;;;;;;;3.50;2.28;;;;;;;20.24;66.47;101370.03;19883668;29;20059;-61
2023/05/06 16:31:12;;;;;;;1.83;1.70;;;;;;;20.24;66.12;101385.38;19883069;29;20466;-61
2023/05/06 16:41:14;;;;;;;1.77;1.60;;;;;;;20.21;66.05;101380.25;19881933;29;20058;-61
2023/05/06 16:51:15;;;;;;;1.48;1.35;;;;;;;20.19;66.35;101376.84;19882499;29;20401;-61
2023/05/06 17:01:17;;;;;;;1.33;1.23;;;;;;;20.18;66.06;101381.41;19879916;29;20063;-61
2023/05/06 17:11:19;;;;;;;2.15;1.80;;;;;;;20.18;66.76;101375.13;19880471;29;20062;-61
2023/05/06 17:21:21;;;;;;;2.30;1.88;;;;;;;20.14;66.67;101377.28;19879861;29;20507;-61
2023/05/06 17:31:22;;;;;;;2.25;1.92;;;;;;;20.10;67.00;101376.69;19878364;29;20101;-61
2023/05/06 17:41:24;;;;;;;1.92;1.67;;;;;;;20.09;66.93;101385.78;19878665;29;20055;-61
2023/05/06 17:51:26;;;;;;;2.20;2.00;;;;;;;20.05;66.84;101373.56;19876682;29;20059;-61
2023/05/06 18:01:28;;;;;;;2.20;1.90;;;;;;;20.03;66.73;101371.97;19878326;29;20058;-61
2023/05/06 18:11:29;;;;;;;2.88;2.10;;;;;;;20.01;66.81;101369.41;19880708;29;20059;-61
2023/05/06 18:21:32;;;;;;;2.05;1.70;;;;;;;19.99;66.84;101374.94;19891718;29;20054;-61
2023/05/06 18:31:34;;;;;;;2.10;1.90;;;;;;;20.00;66.69;101381.22;19891429;29;20558;-61
2023/05/06 18:41:36;;;;;;;2.45;1.90;;;;;;;19.99;66.63;101390.31;19891222;29;20051;-61
2023/05/06 18:51:37;;;;;;;2.28;1.70;;;;;;;19.97;66.45;101386.91;19890035;29;20057;-61
2023/05/06 19:01:39;;;;;;;1.80;1.70;;;;;;;19.96;66.47;101401.41;19889646;29;20531;-61
2023/05/06 19:11:41;;;;;;;2.05;1.83;;;;;;;19.95;66.24;101399.69;19920633;29;20074;-61
2023/05/06 19:21:42;;;;;;;2.00;1.90;;;;;;;19.91;66.10;101398.28;19950115;29;20077;-61
2023/05/06 19:31:44;;;;;;;2.90;2.00;;;;;;;19.64;65.97;101343.81;19937378;29;20058;-61
2023/05/06 19:41:46;;;;;;;2.15;1.80;;;;;;;19.90;65.91;101392.00;19961409;29;20533;-61
2023/05/06 19:51:47;;;;;;;2.17;1.80;;;;;;;19.94;66.14;101398.00;19960981;29;20050;-61
2023/05/06 20:01:49;;;;;;;3.00;2.13;;;;;;;19.87;65.99;101381.44;19944749;29;20050;-61
2023/05/06 20:11:50;;;;;;;2.50;2.30;;;;;;;19.92;66.07;101383.75;19885146;29;20444;-61
2023/05/06 20:21:52;;;;;;;3.63;2.78;;;;;;;19.89;66.04;101384.84;19884294;29;20504;-61
2023/05/06 20:31:54;;;;;;;3.55;2.95;;;;;;;19.88;66.12;101393.06;19883026;29;20055;-61
2023/05/06 20:41:56;;;;;;;4.55;3.10;;;;;;;19.86;66.19;101399.47;19881359;29;20523;-61
2023/05/06 20:51:58;;;;;;;3.00;2.60;;;;;;;19.85;66.43;101405.88;19882307;29;20054;-61
2023/05/06 21:02:00;;;;;;;3.55;3.20;;;;;;;19.84;66.39;101401.47;19881313;29;20050;-61
2023/05/06 21:12:02;;;;;;;3.47;3.10;;;;;;;19.83;66.32;101415.97;19880387;29;20534;-61
2023/05/06 21:22:08;;;;;;;4.13;3.30;;;;;;;19.78;66.33;101409.28;19863583;29;20062;-61
2023/05/06 21:32:10;;;;;;;4.30;3.08;;;;;;;19.81;66.27;101404.44;19879169;29;20054;-61
2023/05/06 21:42:12;;;;;;;4.70;3.50;;;;;;;19.78;66.13;101399.31;19878949;29;20046;-61
2023/05/06 21:52:13;;;;;;;3.03;2.72;;;;;;;19.77;66.15;101412.97;19878471;29;20051;-61
2023/05/06 22:02:15;;;;;;;3.35;2.92;;;;;;;19.78;65.77;101417.38;19878557;29;20057;-61
2023/05/06 22:12:16;;;;;;;3.00;2.67;;;;;;;19.76;65.52;101406.69;19878042;29;20113;-61
2023/05/06 22:22:18;;;;;;;3.25;2.50;;;;;;;19.75;65.19;101415.78;19877262;29;20063;-61
2023/05/06 22:32:22;;;;;;;2.75;2.47;;;;;;;19.73;65.16;101415.06;19876782;29;20509;-61
2023/05/06 22:42:25;;;;;;;2.55;2.35;;;;;;;19.73;65.04;101416.94;19876943;29;21448;-61
2023/05/06 22:52:26;;;;;;;2.75;2.40;;;;;;;19.72;65.14;101416.06;19876523;29;20055;-61
2023/05/06 23:02:28;;;;;;;2.75;2.30;;;;;;;19.71;65.04;101408.97;19885757;29;20597;-61
2023/05/06 23:12:33;;;;;;;2.65;2.45;;;;;;;19.70;65.19;101407.25;19889357;29;20059;-61
2023/05/06 23:22:35;;;;;;;3.10;2.80;;;;;;;19.69;65.41;101406.41;19888999;29;20141;-61
2023/05/06 23:32:36;;;;;;;2.67;2.47;;;;;;;19.68;65.43;101412.81;19887783;29;20112;-61
2023/05/06 23:42:39;;;;;;;2.78;2.53;;;;;;;19.68;65.29;101411.94;19887676;29;20055;-61
2023/05/06 23:52:40;;;;;;;2.65;2.45;;;;;;;19.67;65.51;101412.94;19887186;29;20790;-61
